createdAt,value
2018-05-04T00:02:04.923Z,8.33
2018-05-04T00:07:08.853Z,8.30
2018-05-04T00:17:22.402Z,9.20
2018-05-04T00:22:26.291Z,9.23
2018-05-04T00:27:30.245Z,8.40
2018-05-04T00:32:34.619Z,4.67
2018-05-04T00:37:38.512Z,4.53
2018-05-04T00:42:42.611Z,3.97
2018-05-04T00:47:46.876Z,3.53
2018-05-04T00:52:51.159Z,2.23
2018-05-04T00:57:54.960Z,3.60
2018-05-04T01:02:58.991Z,2.90
2018-05-04T01:13:12.765Z,2.70
2018-05-04T01:18:16.748Z,2.90
2018-05-04T01:23:20.978Z,2.70
2018-05-04T01:28:24.906Z,2.80
2018-05-04T01:33:29.273Z,2.20
2018-05-04T01:38:33.710Z,3.27
2018-05-04T01:43:37.451Z,2.70
2018-05-04T01:48:41.208Z,2.63
2018-05-04T01:53:45.511Z,3.17
2018-05-04T01:58:49.302Z,2.27
2018-05-04T02:03:53.371Z,3.97
2018-05-04T02:08:57.107Z,3.17
2018-05-04T02:14:01.068Z,3.30
2018-05-04T02:19:05.407Z,3.00
2018-05-04T02:24:10.564Z,4.10
2018-05-04T02:29:14.489Z,3.50
2018-05-04T02:34:22.583Z,3.90
2018-05-04T02:39:27.026Z,3.43
2018-05-04T02:44:30.880Z,3.63
2018-05-04T02:49:34.904Z,3.77
2018-05-04T02:54:38.547Z,3.30
2018-05-04T03:04:54.227Z,3.80
2018-05-04T03:10:18.506Z,3.50
2018-05-04T03:15:22.928Z,3.60
2018-05-04T03:20:26.639Z,3.90
2018-05-04T03:25:30.155Z,4.73
2018-05-04T03:30:33.806Z,5.80
2018-05-04T03:35:38.068Z,5.60
2018-05-04T03:40:42.260Z,4.73
2018-05-04T03:45:45.983Z,5.40
2018-05-04T03:50:49.717Z,4.07
2018-05-04T03:55:54.039Z,4.00
2018-05-04T04:03:07.098Z,5.10
2018-05-04T04:08:11.389Z,3.93
2018-05-04T04:13:15.092Z,3.20
2018-05-04T04:18:20.190Z,2.83
2018-05-04T04:23:24.629Z,3.80
2018-05-04T04:28:28.526Z,3.37
2018-05-04T04:33:32.202Z,3.00
2018-05-04T04:38:40.979Z,3.60
2018-05-04T04:43:45.694Z,2.87
2018-05-04T04:48:49.478Z,3.20
2018-05-04T04:53:53.300Z,3.97
2018-05-04T04:59:02.040Z,3.60
2018-05-04T05:04:06.359Z,3.03
2018-05-04T05:09:09.917Z,3.50
2018-05-04T05:19:23.079Z,3.67
2018-05-04T05:24:26.564Z,3.60
2018-05-04T05:29:33.575Z,3.60
2018-05-04T05:34:37.177Z,5.73
2018-05-04T05:39:40.950Z,10.50
2018-05-04T05:49:54.380Z,4.17
2018-05-04T05:54:57.902Z,6.13
2018-05-04T06:00:01.861Z,3.97
2018-05-04T06:05:05.450Z,6.00
2018-05-04T06:10:08.889Z,3.70
2018-05-04T06:20:21.594Z,4.03
2018-05-04T06:25:25.135Z,3.37
2018-05-04T06:30:29.091Z,3.20
2018-05-04T06:35:32.572Z,5.93
2018-05-04T06:40:36.659Z,5.80
2018-05-04T06:45:40.707Z,5.10
2018-05-04T06:50:44.203Z,5.60
2018-05-04T06:55:47.685Z,4.87
2018-05-04T07:06:06.782Z,4.30
2018-05-04T07:11:10.262Z,5.17
2018-05-04T07:16:13.774Z,6.30
2018-05-04T07:26:26.814Z,6.77
2018-05-04T07:31:30.257Z,7.03
2018-05-04T07:36:33.824Z,5.30
2018-05-04T07:52:19.930Z,4.90
2018-05-04T07:57:23.824Z,5.60
2018-05-04T08:02:27.510Z,4.30
2018-05-04T08:07:30.998Z,4.37
2018-05-04T08:12:34.637Z,4.33
2018-05-04T08:17:38.134Z,5.43
2018-05-04T08:22:41.623Z,4.33
2018-05-04T08:27:45.134Z,3.80
2018-05-04T08:32:48.613Z,3.70
2018-05-04T08:37:52.119Z,3.67
2018-05-04T08:42:55.756Z,2.47
2018-05-04T08:48:00.445Z,4.27
2018-05-04T08:53:04.194Z,2.97
2018-05-04T08:58:07.659Z,2.37
2018-05-04T09:08:20.640Z,3.30
2018-05-04T09:13:24.254Z,3.10
2018-05-04T09:18:28.304Z,2.47
2018-05-04T09:23:31.799Z,3.00
2018-05-04T09:28:35.282Z,2.50
2018-05-04T09:33:38.732Z,2.63
2018-05-04T09:38:42.243Z,2.90
2018-05-04T09:43:45.740Z,2.67
2018-05-04T09:48:49.489Z,2.90
2018-05-04T09:53:53.103Z,3.20
2018-05-04T09:58:56.631Z,2.83
2018-05-04T10:04:00.186Z,3.20
2018-05-04T10:09:04.217Z,3.00
2018-05-04T10:14:07.681Z,3.23
2018-05-04T10:19:11.954Z,2.17
2018-05-04T10:24:15.418Z,1.87
2018-05-04T10:29:18.939Z,2.77
2018-05-04T10:34:22.533Z,3.13
2018-05-04T10:39:26.155Z,2.73
2018-05-04T10:44:29.839Z,2.27
2018-05-04T10:49:36.908Z,3.30
2018-05-04T10:54:40.726Z,2.77
2018-05-04T10:59:44.563Z,2.90
2018-05-04T11:04:48.191Z,2.77
2018-05-04T11:09:51.914Z,2.93
2018-05-04T11:14:57.546Z,2.30
2018-05-04T11:20:01.100Z,2.77
2018-05-04T11:30:15.043Z,2.80
2018-05-04T11:35:18.527Z,3.50
2018-05-04T11:40:22.314Z,2.83
2018-05-04T11:45:45.557Z,3.93
2018-05-04T12:01:21.745Z,3.37
2018-05-04T12:06:25.323Z,2.93
2018-05-04T12:11:28.829Z,3.70
2018-05-04T12:16:32.377Z,3.63
2018-05-04T12:21:35.859Z,2.80
2018-05-04T12:26:39.439Z,2.90
2018-05-04T12:31:47.671Z,2.53
2018-05-04T12:36:51.999Z,2.90
2018-05-04T12:41:55.528Z,2.60
2018-05-04T12:47:00.399Z,2.93
2018-05-04T12:52:03.934Z,3.27
2018-05-04T12:57:07.536Z,2.37
2018-05-04T13:02:11.671Z,2.80
2018-05-04T13:07:15.187Z,3.07
2018-05-04T13:12:18.727Z,2.70
2018-05-04T13:17:24.836Z,2.80
2018-05-04T13:22:28.587Z,3.70
2018-05-04T13:32:42.021Z,2.10
2018-05-04T13:37:45.453Z,2.70
2018-05-04T13:42:49.318Z,2.03
2018-05-04T13:47:53.230Z,3.00
2018-05-04T13:52:56.914Z,2.60
2018-05-04T13:58:00.423Z,3.60
2018-05-04T14:03:04.198Z,3.50
2018-05-04T14:08:13.727Z,2.90
2018-05-04T14:13:17.294Z,2.60
2018-05-04T14:18:21.459Z,3.47
2018-05-04T14:23:25.076Z,3.30
2018-05-04T14:38:48.533Z,2.70
2018-05-04T14:43:53.340Z,3.73
2018-05-04T14:48:57.291Z,3.20
2018-05-04T14:54:01.914Z,2.73
2018-05-04T14:59:06.371Z,3.40
2018-05-04T15:04:10.634Z,3.50
2018-05-04T15:09:15.531Z,4.47
2018-05-04T15:14:20.234Z,3.30
2018-05-04T15:19:23.945Z,3.37
2018-05-04T15:29:37.637Z,4.00
2018-05-04T15:34:41.150Z,4.83
2018-05-04T15:39:45.279Z,4.87
2018-05-04T15:56:14.785Z,5.50
2018-05-04T16:01:18.482Z,4.57
2018-05-04T16:06:22.284Z,4.20
2018-05-04T16:11:25.820Z,4.20
2018-05-04T16:16:29.754Z,3.73
2018-05-04T16:21:36.995Z,4.90
2018-05-04T16:26:44.197Z,2.80
2018-05-04T16:31:47.972Z,3.60
2018-05-04T16:36:51.848Z,3.07
2018-05-04T16:41:55.594Z,3.27
2018-05-04T16:47:04.357Z,3.40
2018-05-04T16:52:08.177Z,2.87
2018-05-04T16:57:30.381Z,3.23
2018-05-04T17:02:34.879Z,3.30
2018-05-04T17:07:38.789Z,3.70
2018-05-04T17:12:42.470Z,4.17
2018-05-04T17:18:02.531Z,4.67
2018-05-04T17:28:23.627Z,4.20
2018-05-04T17:33:27.319Z,3.03
2018-05-04T17:38:31.290Z,2.80
2018-05-04T17:43:35.039Z,3.50
2018-05-04T17:48:38.847Z,2.87
2018-05-04T17:53:43.932Z,3.27
2018-05-04T17:58:47.470Z,2.80
2018-05-04T18:03:51.005Z,4.17
2018-05-04T18:14:17.145Z,4.10
2018-05-04T18:19:20.988Z,2.70
2018-05-04T18:24:24.787Z,4.10
2018-05-04T18:29:28.390Z,3.90
2018-05-04T18:34:32.936Z,5.20
2018-05-04T18:39:37.061Z,4.67
2018-05-04T18:44:41.201Z,2.97
2018-05-04T18:49:45.143Z,3.73
2018-05-04T18:54:48.759Z,2.37
2018-05-04T18:59:56.944Z,2.63
2018-05-04T19:05:01.113Z,3.97
2018-05-04T19:15:16.923Z,4.33
2018-05-04T19:20:21.013Z,5.00
2018-05-04T19:30:37.717Z,4.13
2018-05-04T19:35:41.579Z,4.57
2018-05-04T19:40:45.303Z,4.73
2018-05-04T19:45:49.674Z,4.23
2018-05-04T19:56:28.053Z,3.67
2018-05-04T20:01:32.370Z,4.17
2018-05-04T20:06:37.250Z,4.53
2018-05-04T20:16:51.656Z,4.33
2018-05-04T20:44:48.409Z,3.10
2018-05-04T20:49:52.030Z,4.10
2018-05-04T20:54:55.678Z,2.97
2018-05-04T21:05:50.173Z,2.87
2018-05-04T21:17:01.313Z,3.28
2018-05-04T21:22:36.083Z,2.80
2018-05-04T21:27:57.555Z,4.13
2018-05-04T21:33:20.467Z,4.33
2018-05-04T22:22:50.692Z,3.92
2018-05-04T22:28:01.794Z,2.30
2018-05-04T22:33:11.944Z,2.27
2018-05-04T22:38:19.804Z,2.30
2018-05-04T22:43:25.663Z,2.53
2018-05-04T22:53:55.301Z,3.87
2018-05-04T22:59:01.287Z,2.77
2018-05-04T23:04:16.454Z,3.27
2018-05-04T23:09:34.641Z,3.33
2018-05-04T23:14:48.814Z,2.20
2018-05-04T23:19:56.713Z,2.93
2018-05-04T23:25:09.129Z,2.73
2018-05-04T23:35:31.094Z,2.10
2018-05-04T23:40:35.514Z,2.53
2018-05-04T23:45:51.706Z,3.43
2018-05-04T23:56:08.415Z,2.43
